Monday, February 18, 2019, 5:26 AM EST
Back to Local

KDMH, Baltimore Downtown

Location: Baltimore, MD, United States Lat: 39.283
Local Time: 5:26 AM EST (10:26 GMT) Lon: -76.617
Time Zone: US/Eastern Elev: 19 ft

Show me the last for .
Show Coded

Time T Td Feel RH Dir Speed Gust Alt SLP Vis Weather Sky Remarks
2019-02-18 04:54 39 35 - 85 - - - 29.80 29.80 0 1-hr Precip Total: 0.02"
2019-02-18 03:54 38 35 - 89 - - - 29.77 29.76 0 1-hr Precip Total: 0.09"
6-hr Precip Total (4am): 0.22"
2019-02-18 02:54 38 35 - 89 - - - 29.81 29.80 0 1-hr Precip Total: 0.07"
2019-02-18 01:54 37 34 - 88 - - - 29.80 29.80 0 Pressure falling rapidly
1-hr Precip Total: 0.06"
2019-02-18 00:54 37 33 - 85 - - - 29.89 29.89 0 1-hr Precip Total: 0.02"
6-hr Precip Total (1am): 0.21"
6-hr Min Temp (1am): 35.1°F
6-hr Max Temp (1am): 37.0°F
2019-02-17 23:54 36 32 - 85 - - - 29.89 29.89 0 1-hr Precip Total: 0.03"
24-hr Min Temp (12am): 30.0°F
24-hr Max Temp (12am): 37.0°F
2019-02-17 22:54 36 32 - 85 - - - 29.92 29.92 0 Pressure falling rapidly
1-hr Precip Total: 0.07"
2019-02-17 21:54 36 32 - 85 - - - 29.96 29.96 0 Pressure falling rapidly
1-hr Precip Total: 0.05"
6-hr Precip Total (10pm): 0.09"
2019-02-17 20:54 36 30 - 78 - - - 29.96 29.96 0 1-hr Precip Total: 0.02"
2019-02-17 19:54 36 29 - 75 - - - 29.95 29.95 0 1-hr Precip Total: 0.02"
2019-02-17 18:54 37 27 - 66 - - - 29.97 29.97 0 6-hr Precip Total (7pm): 0.01"
6-hr Min Temp (7pm): 34.0°F
6-hr Max Temp (7pm): 37.0°F
2019-02-17 17:54 36 26 - 66 - - - 30.02 30.01 0 1-hr Precip Total: 0.01"
2019-02-17 16:54 37 23 - 56 - - - 30.04 30.03 0 None
2019-02-17 15:54 37 22 - 53 - - - 30.03 30.03 0 None
2019-02-17 14:54 37 21 - 51 - - - 30.06 30.06 0 None
2019-02-17 13:54 35 20 - 53 - - - 30.09 30.08 0 None
2019-02-17 12:54 34 19 - 53 - - - 30.14 30.13 0 6-hr Min Temp (1pm): 30.0°F
6-hr Max Temp (1pm): 35.1°F
2019-02-17 11:54 34 20 - 55 - - - 30.15 30.14 0 None
2019-02-17 10:54 35 20 - 53 - - - 30.18 30.17 0 None
2019-02-17 09:54 33 18 - 53 - - - 30.14 30.14 0 None
2019-02-17 08:54 32 18 - 55 - - - 30.15 30.14 0 None
2019-02-17 07:54 31 18 - 58 - - - 30.15 30.15 0 None
2019-02-17 06:54 31 17 - 55 - - - 30.12 30.12 0 6-hr Min Temp (7am): 30.0°F
6-hr Max Temp (7am): 36.0°F
2019-02-17 05:54 31 18 - 58 - - - 30.11 30.11 0 None

Support USWX by starting your Amazon purchase here.